sensor_id;sensor_type;location;lat;lon;timestamp;pressure;altitude;pressure_sealevel;temperature;humidity
61359;BME280;47228;46.762;23.598;2022-09-01T00:00:26;97173.92;;;16.42;82.39
61359;BME280;47228;46.762;23.598;2022-09-01T00:03:02;97171.89;;;16.43;82.67
61359;BME280;47228;46.762;23.598;2022-09-01T00:05:30;97170.20;;;16.45;82.86
61359;BME280;47228;46.762;23.598;2022-09-01T00:07:59;97168.17;;;16.46;83.03
61359;BME280;47228;46.762;23.598;2022-09-01T00:10:27;97166.65;;;16.47;82.60
61359;BME280;47228;46.762;23.598;2022-09-01T00:12:55;97164.16;;;16.50;82.46
61359;BME280;47228;46.762;23.598;2022-09-01T00:15:24;97161.39;;;16.50;82.26
61359;BME280;47228;46.762;23.598;2022-09-01T00:17:53;97158.83;;;16.48;82.20
61359;BME280;47228;46.762;23.598;2022-09-01T00:20:21;97155.29;;;16.44;81.83
61359;BME280;47228;46.762;23.598;2022-09-01T00:22:49;97153.84;;;16.40;82.04
61359;BME280;47228;46.762;23.598;2022-09-01T00:25:18;97148.60;;;16.37;81.92
61359;BME280;47228;46.762;23.598;2022-09-01T00:27:48;97143.11;;;16.31;81.79
61359;BME280;47228;46.762;23.598;2022-09-01T00:30:17;97146.22;;;16.24;81.67
61359;BME280;47228;46.762;23.598;2022-09-01T00:32:46;97143.48;;;16.16;81.80
61359;BME280;47228;46.762;23.598;2022-09-01T00:35:17;97144.20;;;16.11;81.85
61359;BME280;47228;46.762;23.598;2022-09-01T00:37:46;97143.25;;;16.05;81.77
61359;BME280;47228;46.762;23.598;2022-09-01T00:40:15;97141.42;;;16.01;82.12
61359;BME280;47228;46.762;23.598;2022-09-01T00:42:45;97139.39;;;15.98;82.25
61359;BME280;47228;46.762;23.598;2022-09-01T00:45:15;97136.12;;;15.95;82.45
61359;BME280;47228;46.762;23.598;2022-09-01T00:47:43;97140.41;;;15.90;82.35
61359;BME280;47228;46.762;23.598;2022-09-01T00:50:14;97141.40;;;15.85;82.57
61359;BME280;47228;46.762;23.598;2022-09-01T00:52:52;97141.83;;;15.78;82.55
61359;BME280;47228;46.762;23.598;2022-09-01T00:55:25;97147.14;;;15.72;82.95
61359;BME280;47228;46.762;23.598;2022-09-01T00:57:54;97151.55;;;15.70;83.14
61359;BME280;47228;46.762;23.598;2022-09-01T01:00:25;97149.77;;;15.69;83.13
61359;BME280;47228;46.762;23.598;2022-09-01T01:02:55;97153.33;;;15.68;83.43
61359;BME280;47228;46.762;23.598;2022-09-01T01:05:32;97149.42;;;15.68;83.40
61359;BME280;47228;46.762;23.598;2022-09-01T01:08:02;97142.61;;;15.67;83.35
61359;BME280;47228;46.762;23.598;2022-09-01T01:10:31;97143.10;;;15.64;83.46
61359;BME280;47228;46.762;23.598;2022-09-01T01:13:12;97148.06;;;15.63;83.23
61359;BME280;47228;46.762;23.598;2022-09-01T01:15:42;97145.84;;;15.62;83.63
61359;BME280;47228;46.762;23.598;2022-09-01T01:18:14;97144.05;;;15.63;83.98
61359;BME280;47228;46.762;23.598;2022-09-01T01:21:17;97141.77;;;15.64;84.03
61359;BME280;47228;46.762;23.598;2022-09-01T01:26:52;97138.59;;;15.60;83.28
61359;BME280;47228;46.762;23.598;2022-09-01T01:29:21;97138.20;;;15.54;83.22
61359;BME280;47228;46.762;23.598;2022-09-01T01:31:50;97131.89;;;15.51;83.52
61359;BME280;47228;46.762;23.598;2022-09-01T01:34:21;97130.23;;;15.47;83.68
61359;BME280;47228;46.762;23.598;2022-09-01T01:36:51;97127.98;;;15.47;83.85
61359;BME280;47228;46.762;23.598;2022-09-01T01:39:22;97122.70;;;15.49;84.13
61359;BME280;47228;46.762;23.598;2022-09-01T01:41:54;97123.02;;;15.49;83.93
61359;BME280;47228;46.762;23.598;2022-09-01T01:44:26;97123.45;;;15.49;83.82
61359;BME280;47228;46.762;23.598;2022-09-01T01:47:00;97124.55;;;15.47;83.92
61359;BME280;47228;46.762;23.598;2022-09-01T01:49:36;97128.42;;;15.45;83.73
61359;BME280;47228;46.762;23.598;2022-09-01T01:52:04;97130.00;;;15.44;83.57
61359;BME280;47228;46.762;23.598;2022-09-01T01:54:35;97125.58;;;15.42;83.91
61359;BME280;47228;46.762;23.598;2022-09-01T01:57:04;97123.95;;;15.41;84.09
61359;BME280;47228;46.762;23.598;2022-09-01T01:59:32;97114.77;;;15.38;84.19
61359;BME280;47228;46.762;23.598;2022-09-01T02:02:01;97116.15;;;15.35;84.09
61359;BME280;47228;46.762;23.598;2022-09-01T02:04:31;97118.84;;;15.36;84.30
61359;BME280;47228;46.762;23.598;2022-09-01T02:07:08;97122.58;;;15.38;84.70
61359;BME280;47228;46.762;23.598;2022-09-01T02:09:39;97124.72;;;15.42;84.27
61359;BME280;47228;46.762;23.598;2022-09-01T02:12:11;97129.47;;;15.43;84.09
61359;BME280;47228;46.762;23.598;2022-09-01T02:14:42;97126.63;;;15.43;84.20
61359;BME280;47228;46.762;23.598;2022-09-01T02:17:10;97124.42;;;15.40;84.00
61359;BME280;47228;46.762;23.598;2022-09-01T02:19:38;97125.59;;;15.38;84.31
61359;BME280;47228;46.762;23.598;2022-09-01T02:22:09;97125.75;;;15.38;84.37
61359;BME280;47228;46.762;23.598;2022-09-01T02:24:38;97124.41;;;15.39;84.25
61359;BME280;47228;46.762;23.598;2022-09-01T02:27:18;97120.03;;;15.40;84.19
61359;BME280;47228;46.762;23.598;2022-09-01T02:29:53;97121.90;;;15.39;84.23
61359;BME280;47228;46.762;23.598;2022-09-01T02:32:22;97122.59;;;15.39;84.08
61359;BME280;47228;46.762;23.598;2022-09-01T02:34:50;97120.77;;;15.36;83.67
61359;BME280;47228;46.762;23.598;2022-09-01T02:37:20;97122.92;;;15.31;83.75
61359;BME280;47228;46.762;23.598;2022-09-01T02:39:52;97120.73;;;15.28;84.14
61359;BME280;47228;46.762;23.598;2022-09-01T02:42:24;97121.84;;;15.27;84.27
61359;BME280;47228;46.762;23.598;2022-09-01T02:44:55;97119.45;;;15.25;84.24
61359;BME280;47228;46.762;23.598;2022-09-01T02:47:25;97114.70;;;15.22;84.35
61359;BME280;47228;46.762;23.598;2022-09-01T02:49:56;97112.84;;;15.18;84.36
61359;BME280;47228;46.762;23.598;2022-09-01T02:52:26;97111.15;;;15.16;84.61
61359;BME280;47228;46.762;23.598;2022-09-01T02:54:56;97116.59;;;15.17;84.82
61359;BME280;47228;46.762;23.598;2022-09-01T02:57:26;97121.35;;;15.18;85.04
61359;BME280;47228;46.762;23.598;2022-09-01T02:59:56;97118.14;;;15.21;85.40
61359;BME280;47228;46.762;23.598;2022-09-01T03:02:26;97118.74;;;15.25;85.84
61359;BME280;47228;46.762;23.598;2022-09-01T03:04:55;97120.22;;;15.29;85.83
61359;BME280;47228;46.762;23.598;2022-09-01T03:07:24;97118.97;;;15.34;85.58
61359;BME280;47228;46.762;23.598;2022-09-01T03:09:54;97119.09;;;15.37;85.57
61359;BME280;47228;46.762;23.598;2022-09-01T03:12:22;97118.52;;;15.42;85.44
61359;BME280;47228;46.762;23.598;2022-09-01T03:14:50;97119.36;;;15.42;85.13
61359;BME280;47228;46.762;23.598;2022-09-01T03:17:18;97115.39;;;15.41;84.86
61359;BME280;47228;46.762;23.598;2022-09-01T03:19:48;97116.86;;;15.39;84.51
61359;BME280;47228;46.762;23.598;2022-09-01T03:22:18;97113.32;;;15.35;84.16
61359;BME280;47228;46.762;23.598;2022-09-01T03:24:47;97109.31;;;15.33;84.01
61359;BME280;47228;46.762;23.598;2022-09-01T03:27:16;97104.63;;;15.31;84.30
61359;BME280;47228;46.762;23.598;2022-09-01T03:29:44;97110.02;;;15.28;83.90
61359;BME280;47228;46.762;23.598;2022-09-01T03:32:12;97109.89;;;15.26;84.03
61359;BME280;47228;46.762;23.598;2022-09-01T03:34:40;97112.81;;;15.25;84.25
61359;BME280;47228;46.762;23.598;2022-09-01T03:37:08;97113.23;;;15.24;84.21
61359;BME280;47228;46.762;23.598;2022-09-01T03:39:39;97115.84;;;15.26;84.32
61359;BME280;47228;46.762;23.598;2022-09-01T03:42:07;97114.98;;;15.27;84.37
61359;BME280;47228;46.762;23.598;2022-09-01T03:44:39;97114.72;;;15.24;84.30
61359;BME280;47228;46.762;23.598;2022-09-01T03:47:07;97112.89;;;15.20;84.19
61359;BME280;47228;46.762;23.598;2022-09-01T03:49:42;97114.34;;;15.18;84.43
61359;BME280;47228;46.762;23.598;2022-09-01T03:52:10;97109.09;;;15.17;84.95
61359;BME280;47228;46.762;23.598;2022-09-01T03:54:39;97111.54;;;15.20;85.09
61359;BME280;47228;46.762;23.598;2022-09-01T03:57:07;97110.61;;;15.24;85.57
61359;BME280;47228;46.762;23.598;2022-09-01T03:59:40;97114.09;;;15.31;85.69
61359;BME280;47228;46.762;23.598;2022-09-01T04:02:12;97114.01;;;15.34;85.31
61359;BME280;47228;46.762;23.598;2022-09-01T04:04:41;97116.65;;;15.36;85.41
61359;BME280;47228;46.762;23.598;2022-09-01T04:07:09;97117.94;;;15.39;85.71
61359;BME280;47228;46.762;23.598;2022-09-01T04:09:45;97117.81;;;15.45;85.73
61359;BME280;47228;46.762;23.598;2022-09-01T04:12:13;97116.33;;;15.52;85.54
61359;BME280;47228;46.762;23.598;2022-09-01T04:14:46;97110.71;;;15.55;85.20
61359;BME280;47228;46.762;23.598;2022-09-01T04:17:15;97110.39;;;15.58;85.08
61359;BME280;47228;46.762;23.598;2022-09-01T04:20:02;97110.15;;;15.60;84.93
61359;BME280;47228;46.762;23.598;2022-09-01T04:22:35;97115.56;;;15.60;84.99
61359;BME280;47228;46.762;23.598;2022-09-01T04:25:05;97114.70;;;15.62;84.74
61359;BME280;47228;46.762;23.598;2022-09-01T04:27:33;97114.02;;;15.66;84.87
61359;BME280;47228;46.762;23.598;2022-09-01T04:30:09;97111.80;;;15.70;84.71
61359;BME280;47228;46.762;23.598;2022-09-01T04:32:38;97114.96;;;15.72;84.39
61359;BME280;47228;46.762;23.598;2022-09-01T04:35:13;97114.05;;;15.72;83.92
61359;BME280;47228;46.762;23.598;2022-09-01T04:37:45;97118.18;;;15.72;84.00
61359;BME280;47228;46.762;23.598;2022-09-01T04:40:14;97115.64;;;15.72;83.82
61359;BME280;47228;46.762;23.598;2022-09-01T04:42:44;97114.78;;;15.68;83.18
61359;BME280;47228;46.762;23.598;2022-09-01T04:45:13;97118.02;;;15.63;83.36
61359;BME280;47228;46.762;23.598;2022-09-01T04:47:47;97117.39;;;15.60;83.04
61359;BME280;47228;46.762;23.598;2022-09-01T04:50:17;97119.22;;;15.58;82.94
61359;BME280;47228;46.762;23.598;2022-09-01T04:53:05;97116.73;;;15.57;83.32
61359;BME280;47228;46.762;23.598;2022-09-01T04:55:54;97120.95;;;15.58;83.44
61359;BME280;47228;46.762;23.598;2022-09-01T04:58:24;97117.86;;;15.59;83.85
61359;BME280;47228;46.762;23.598;2022-09-01T05:00:55;97116.88;;;15.59;83.48
61359;BME280;47228;46.762;23.598;2022-09-01T05:03:25;97115.25;;;15.60;83.62
61359;BME280;47228;46.762;23.598;2022-09-01T05:06:15;97118.00;;;15.62;83.55
61359;BME280;47228;46.762;23.598;2022-09-01T05:08:53;97118.45;;;15.60;83.76
61359;BME280;47228;46.762;23.598;2022-09-01T05:11:41;97122.07;;;15.61;83.86
61359;BME280;47228;46.762;23.598;2022-09-01T05:14:28;97121.45;;;15.62;83.84
61359;BME280;47228;46.762;23.598;2022-09-01T05:16:57;97119.31;;;15.67;84.09
61359;BME280;47228;46.762;23.598;2022-09-01T05:19:27;97119.01;;;15.67;83.52
61359;BME280;47228;46.762;23.598;2022-09-01T05:21:59;97113.39;;;15.68;83.54
61359;BME280;47228;46.762;23.598;2022-09-01T05:24:29;97116.45;;;15.65;83.25
61359;BME280;47228;46.762;23.598;2022-09-01T05:27:06;97113.91;;;15.64;83.56
61359;BME280;47228;46.762;23.598;2022-09-01T05:29:36;97108.85;;;15.68;84.06
61359;BME280;47228;46.762;23.598;2022-09-01T05:32:06;97101.02;;;15.72;84.26
61359;BME280;47228;46.762;23.598;2022-09-01T05:34:39;97102.55;;;15.76;84.34
61359;BME280;47228;46.762;23.598;2022-09-01T05:37:09;97101.81;;;15.80;84.24
61359;BME280;47228;46.762;23.598;2022-09-01T05:39:40;97102.25;;;15.84;84.61
61359;BME280;47228;46.762;23.598;2022-09-01T05:42:09;97101.27;;;15.91;84.13
61359;BME280;47228;46.762;23.598;2022-09-01T05:44:39;97099.83;;;15.96;84.12
61359;BME280;47228;46.762;23.598;2022-09-01T05:47:14;97098.94;;;16.01;84.04
61359;BME280;47228;46.762;23.598;2022-09-01T05:49:50;97094.23;;;16.05;83.70
61359;BME280;47228;46.762;23.598;2022-09-01T05:52:20;97085.69;;;16.07;83.46
61359;BME280;47228;46.762;23.598;2022-09-01T05:54:53;97082.62;;;16.09;83.44
61359;BME280;47228;46.762;23.598;2022-09-01T05:57:25;97084.52;;;16.15;83.63
61359;BME280;47228;46.762;23.598;2022-09-01T06:00:05;97085.68;;;16.22;83.41
61359;BME280;47228;46.762;23.598;2022-09-01T06:02:42;97078.06;;;16.25;83.28
61359;BME280;47228;46.762;23.598;2022-09-01T06:05:16;97080.48;;;16.29;83.47
61359;BME280;47228;46.762;23.598;2022-09-01T06:07:44;97079.20;;;16.34;83.29
61359;BME280;47228;46.762;23.598;2022-09-01T06:10:13;97077.30;;;16.40;83.09
61359;BME280;47228;46.762;23.598;2022-09-01T06:12:41;97073.03;;;16.46;83.02
61359;BME280;47228;46.762;23.598;2022-09-01T06:15:16;97073.01;;;16.53;83.14
61359;BME280;47228;46.762;23.598;2022-09-01T06:17:50;97077.04;;;16.58;83.17
61359;BME280;47228;46.762;23.598;2022-09-01T06:20:19;97075.89;;;16.64;83.34
61359;BME280;47228;46.762;23.598;2022-09-01T06:22:49;97079.60;;;16.76;83.97
61359;BME280;47228;46.762;23.598;2022-09-01T06:25:20;97077.29;;;16.88;84.42
61359;BME280;47228;46.762;23.598;2022-09-01T06:27:48;97078.71;;;17.01;83.99
61359;BME280;47228;46.762;23.598;2022-09-01T06:30:19;97081.89;;;17.15;83.94
61359;BME280;47228;46.762;23.598;2022-09-01T06:32:59;97080.41;;;17.28;83.58
61359;BME280;47228;46.762;23.598;2022-09-01T06:35:30;97083.31;;;17.41;83.37
61359;BME280;47228;46.762;23.598;2022-09-01T06:37:59;97087.14;;;17.53;83.29
61359;BME280;47228;46.762;23.598;2022-09-01T06:40:41;97090.75;;;17.68;83.21
61359;BME280;47228;46.762;23.598;2022-09-01T06:43:11;97092.46;;;17.81;83.10
61359;BME280;47228;46.762;23.598;2022-09-01T06:45:48;97084.20;;;17.89;82.45
61359;BME280;47228;46.762;23.598;2022-09-01T06:48:25;97087.23;;;17.99;82.50
61359;BME280;47228;46.762;23.598;2022-09-01T06:51:06;97087.25;;;18.09;82.47
61359;BME280;47228;46.762;23.598;2022-09-01T06:53:50;97087.46;;;18.15;81.44
61359;BME280;47228;46.762;23.598;2022-09-01T06:56:30;97087.27;;;18.17;81.68
61359;BME280;47228;46.762;23.598;2022-09-01T06:59:08;97085.90;;;18.23;81.46
61359;BME280;47228;46.762;23.598;2022-09-01T07:01:38;97079.58;;;18.27;81.60
61359;BME280;47228;46.762;23.598;2022-09-01T07:04:06;97082.27;;;18.29;81.39
61359;BME280;47228;46.762;23.598;2022-09-01T07:06:47;97080.89;;;18.30;81.45
61359;BME280;47228;46.762;23.598;2022-09-01T07:09:59;97083.94;;;18.38;81.94
61359;BME280;47228;46.762;23.598;2022-09-01T07:12:54;97078.73;;;18.42;81.77
61359;BME280;47228;46.762;23.598;2022-09-01T07:15:40;97080.88;;;18.41;81.38
61359;BME280;47228;46.762;23.598;2022-09-01T07:18:31;97078.54;;;18.43;81.88
61359;BME280;47228;46.762;23.598;2022-09-01T07:21:04;97073.71;;;18.48;82.12
61359;BME280;47228;46.762;23.598;2022-09-01T07:23:55;97072.07;;;18.54;82.45
61359;BME280;47228;46.762;23.598;2022-09-01T07:26:58;97074.54;;;18.66;82.92
61359;BME280;47228;46.762;23.598;2022-09-01T07:29:34;97076.34;;;18.75;82.65
61359;BME280;47228;46.762;23.598;2022-09-01T07:32:05;97077.25;;;18.85;82.61
61359;BME280;47228;46.762;23.598;2022-09-01T07:34:53;97079.70;;;18.96;81.90
61359;BME280;47228;46.762;23.598;2022-09-01T07:37:22;97085.54;;;19.03;81.69
61359;BME280;47228;46.762;23.598;2022-09-01T07:40:12;97083.43;;;19.11;81.46
61359;BME280;47228;46.762;23.598;2022-09-01T07:43:28;97081.46;;;19.23;81.84
61359;BME280;47228;46.762;23.598;2022-09-01T07:46:26;97077.45;;;19.34;81.03
61359;BME280;47228;46.762;23.598;2022-09-01T07:49:15;97073.80;;;19.41;80.97
61359;BME280;47228;46.762;23.598;2022-09-01T07:52:04;97071.81;;;19.48;81.09
61359;BME280;47228;46.762;23.598;2022-09-01T07:54:36;97071.33;;;19.55;80.76
61359;BME280;47228;46.762;23.598;2022-09-01T07:57:04;97073.69;;;19.64;80.60
61359;BME280;47228;46.762;23.598;2022-09-01T07:59:34;97071.60;;;19.72;80.00
61359;BME280;47228;46.762;23.598;2022-09-01T08:02:18;97070.02;;;19.82;79.90
61359;BME280;47228;46.762;23.598;2022-09-01T08:04:47;97071.42;;;19.95;80.42
61359;BME280;47228;46.762;23.598;2022-09-01T08:07:16;97062.73;;;20.11;80.12
61359;BME280;47228;46.762;23.598;2022-09-01T08:09:44;97063.35;;;20.31;80.38
61359;BME280;47228;46.762;23.598;2022-09-01T08:12:15;97061.65;;;20.53;79.88
61359;BME280;47228;46.762;23.598;2022-09-01T08:14:52;97057.48;;;20.73;78.87
61359;BME280;47228;46.762;23.598;2022-09-01T08:17:41;97055.30;;;20.91;77.48
61359;BME280;47228;46.762;23.598;2022-09-01T08:20:32;97051.31;;;21.10;76.09
61359;BME280;47228;46.762;23.598;2022-09-01T08:23:22;97055.15;;;21.27;75.34
61359;BME280;47228;46.762;23.598;2022-09-01T08:25:55;97050.83;;;21.41;74.08
61359;BME280;47228;46.762;23.598;2022-09-01T08:28:23;97043.90;;;21.51;73.19
61359;BME280;47228;46.762;23.598;2022-09-01T08:30:56;97041.39;;;21.61;73.31
61359;BME280;47228;46.762;23.598;2022-09-01T08:33:26;97042.63;;;21.75;72.79
61359;BME280;47228;46.762;23.598;2022-09-01T08:35:54;97033.52;;;21.90;71.70
61359;BME280;47228;46.762;23.598;2022-09-01T08:38:25;97026.45;;;22.06;70.80
61359;BME280;47228;46.762;23.598;2022-09-01T08:40:55;97025.08;;;22.20;69.67
61359;BME280;47228;46.762;23.598;2022-09-01T08:46:38;97028.92;;;22.43;68.03
61359;BME280;47228;46.762;23.598;2022-09-01T08:49:15;97025.48;;;22.54;67.71
61359;BME280;47228;46.762;23.598;2022-09-01T08:52:29;97023.59;;;22.70;67.02
61359;BME280;47228;46.762;23.598;2022-09-01T08:55:42;97020.64;;;22.80;66.70
61359;BME280;47228;46.762;23.598;2022-09-01T08:58:16;97020.73;;;22.89;66.57
61359;BME280;47228;46.762;23.598;2022-09-01T09:01:23;97017.97;;;22.97;65.73
61359;BME280;47228;46.762;23.598;2022-09-01T09:07:11;97012.00;;;23.23;64.74
61359;BME280;47228;46.762;23.598;2022-09-01T09:09:54;97009.20;;;23.34;64.51
61359;BME280;47228;46.762;23.598;2022-09-01T09:21:41;97003.52;;;23.91;62.15
61359;BME280;47228;46.762;23.598;2022-09-01T09:27:29;97004.45;;;24.10;60.92
61359;BME280;47228;46.762;23.598;2022-09-01T09:30:07;97003.20;;;24.19;60.70
61359;BME280;47228;46.762;23.598;2022-09-01T09:32:50;97001.66;;;24.31;60.14
61359;BME280;47228;46.762;23.598;2022-09-01T09:35:42;96998.79;;;24.48;59.95
61359;BME280;47228;46.762;23.598;2022-09-01T09:41:16;96997.85;;;24.79;59.53
61359;BME280;47228;46.762;23.598;2022-09-01T09:46:38;96990.48;;;24.94;57.82
61359;BME280;47228;46.762;23.598;2022-09-01T09:49:26;96992.73;;;25.03;57.15
61359;BME280;47228;46.762;23.598;2022-09-01T09:54:38;96987.97;;;25.28;56.54
61359;BME280;47228;46.762;23.598;2022-09-01T10:08:06;96986.81;;;25.65;53.84
61359;BME280;47228;46.762;23.598;2022-09-01T10:10:45;96982.27;;;25.57;53.80
61359;BME280;47228;46.762;23.598;2022-09-01T10:13:27;96981.83;;;25.48;52.82
61359;BME280;47228;46.762;23.598;2022-09-01T10:16:07;96983.41;;;25.37;53.84
61359;BME280;47228;46.762;23.598;2022-09-01T10:18:43;96981.30;;;25.31;54.07
61359;BME280;47228;46.762;23.598;2022-09-01T10:21:20;96984.96;;;25.30;54.13
61359;BME280;47228;46.762;23.598;2022-09-01T10:23:52;96979.11;;;25.39;53.41
61359;BME280;47228;46.762;23.598;2022-09-01T10:26:45;96976.46;;;25.59;53.31
61359;BME280;47228;46.762;23.598;2022-09-01T10:29:18;96978.25;;;25.89;52.46
61359;BME280;47228;46.762;23.598;2022-09-01T10:31:48;96963.99;;;26.14;51.60
61359;BME280;47228;46.762;23.598;2022-09-01T10:34:38;96966.33;;;26.35;50.81
61359;BME280;47228;46.762;23.598;2022-09-01T10:37:10;96968.77;;;26.48;50.14
61359;BME280;47228;46.762;23.598;2022-09-01T10:40:15;96967.69;;;26.55;49.56
61359;BME280;47228;46.762;23.598;2022-09-01T10:42:49;96968.45;;;26.53;49.25
61359;BME280;47228;46.762;23.598;2022-09-01T10:45:34;96973.16;;;26.43;49.37
61359;BME280;47228;46.762;23.598;2022-09-01T10:53:55;96969.83;;;26.03;50.22
61359;BME280;47228;46.762;23.598;2022-09-01T10:56:45;96969.42;;;25.91;50.31
61359;BME280;47228;46.762;23.598;2022-09-01T11:02:17;96962.61;;;25.69;51.01
61359;BME280;47228;46.762;23.598;2022-09-01T11:07:32;96946.99;;;25.41;50.65
61359;BME280;47228;46.762;23.598;2022-09-01T11:10:35;96941.39;;;25.36;50.56
61359;BME280;47228;46.762;23.598;2022-09-01T11:15:48;96936.64;;;25.26;51.60
61359;BME280;47228;46.762;23.598;2022-09-01T11:18:27;96934.13;;;25.25;52.51
61359;BME280;47228;46.762;23.598;2022-09-01T11:21:25;96934.39;;;25.22;51.81
61359;BME280;47228;46.762;23.598;2022-09-01T11:25:04;96935.92;;;25.18;51.72
61359;BME280;47228;46.762;23.598;2022-09-01T11:27:01;96932.85;;;25.14;52.03
61359;BME280;47228;46.762;23.598;2022-09-01T11:32:25;96937.33;;;25.05;51.70
61359;BME280;47228;46.762;23.598;2022-09-01T11:34:59;96937.08;;;24.97;51.55
61359;BME280;47228;46.762;23.598;2022-09-01T11:37:29;96936.36;;;24.90;51.34
61359;BME280;47228;46.762;23.598;2022-09-01T11:40:03;96935.38;;;24.85;51.80
61359;BME280;47228;46.762;23.598;2022-09-01T11:42:42;96933.77;;;24.81;52.65
61359;BME280;47228;46.762;23.598;2022-09-01T11:45:25;96927.73;;;24.79;52.34
61359;BME280;47228;46.762;23.598;2022-09-01T11:48:06;96929.47;;;24.77;52.77
61359;BME280;47228;46.762;23.598;2022-09-01T11:50:39;96933.30;;;24.75;52.61
61359;BME280;47228;46.762;23.598;2022-09-01T11:53:12;96934.80;;;24.74;52.52
61359;BME280;47228;46.762;23.598;2022-09-01T11:55:49;96938.08;;;24.73;52.51
61359;BME280;47228;46.762;23.598;2022-09-01T12:00:57;96939.15;;;24.67;52.68
61359;BME280;47228;46.762;23.598;2022-09-01T12:03:38;96939.90;;;24.62;52.30
61359;BME280;47228;46.762;23.598;2022-09-01T12:06:10;96943.77;;;24.56;52.04
61359;BME280;47228;46.762;23.598;2022-09-01T12:08:41;96939.61;;;24.51;52.45
61359;BME280;47228;46.762;23.598;2022-09-01T12:11:20;96943.52;;;24.45;52.95
61359;BME280;47228;46.762;23.598;2022-09-01T12:13:59;96943.60;;;24.42;53.05
61359;BME280;47228;46.762;23.598;2022-09-01T12:16:32;96944.83;;;24.37;53.10
61359;BME280;47228;46.762;23.598;2022-09-01T12:19:03;96944.23;;;24.31;53.28
61359;BME280;47228;46.762;23.598;2022-09-01T12:21:37;96948.02;;;24.27;53.73
61359;BME280;47228;46.762;23.598;2022-09-01T12:24:21;96947.89;;;24.23;54.38
61359;BME280;47228;46.762;23.598;2022-09-01T12:26:52;96945.98;;;24.18;55.07
61359;BME280;47228;46.762;23.598;2022-09-01T12:29:26;96943.92;;;24.11;55.10
61359;BME280;47228;46.762;23.598;2022-09-01T12:31:59;96944.91;;;24.07;55.42
61359;BME280;47228;46.762;23.598;2022-09-01T12:34:45;96945.05;;;24.03;55.57
61359;BME280;47228;46.762;23.598;2022-09-01T12:39:56;96944.26;;;23.94;56.32
61359;BME280;47228;46.762;23.598;2022-09-01T12:42:33;96944.01;;;23.89;56.28
61359;BME280;47228;46.762;23.598;2022-09-01T12:45:08;96948.34;;;23.84;55.92
61359;BME280;47228;46.762;23.598;2022-09-01T12:52:57;96940.98;;;23.69;56.53
61359;BME280;47228;46.762;23.598;2022-09-01T12:55:34;96945.17;;;23.62;55.90
61359;BME280;47228;46.762;23.598;2022-09-01T12:58:23;96945.52;;;23.54;55.73
61359;BME280;47228;46.762;23.598;2022-09-01T13:01:06;96946.48;;;23.48;55.90
61359;BME280;47228;46.762;23.598;2022-09-01T13:04:05;96945.05;;;23.44;56.16
61359;BME280;47228;46.762;23.598;2022-09-01T13:06:34;96943.64;;;23.38;56.52
61359;BME280;47228;46.762;23.598;2022-09-01T13:09:03;96947.05;;;23.34;56.82
61359;BME280;47228;46.762;23.598;2022-09-01T13:11:31;96948.23;;;23.29;57.12
61359;BME280;47228;46.762;23.598;2022-09-01T13:14:20;96948.86;;;23.24;57.51
61359;BME280;47228;46.762;23.598;2022-09-01T13:16:48;96951.36;;;23.18;57.52
61359;BME280;47228;46.762;23.598;2022-09-01T13:19:17;96960.53;;;23.14;57.59
61359;BME280;47228;46.762;23.598;2022-09-01T13:21:55;96969.75;;;23.05;57.94
61359;BME280;47228;46.762;23.598;2022-09-01T13:24:23;96978.05;;;22.90;58.50
61359;BME280;47228;46.762;23.598;2022-09-01T13:26:58;96986.17;;;22.70;58.86
61359;BME280;47228;46.762;23.598;2022-09-01T13:29:46;96990.54;;;22.40;58.38
61359;BME280;47228;46.762;23.598;2022-09-01T13:32:16;96993.73;;;22.12;58.89
61359;BME280;47228;46.762;23.598;2022-09-01T13:34:50;96999.92;;;21.89;59.54
61359;BME280;47228;46.762;23.598;2022-09-01T13:37:20;97003.28;;;21.69;59.97
61359;BME280;47228;46.762;23.598;2022-09-01T13:39:49;97006.38;;;21.55;60.93
61359;BME280;47228;46.762;23.598;2022-09-01T13:42:17;97007.23;;;21.40;61.82
61359;BME280;47228;46.762;23.598;2022-09-01T13:44:46;97007.20;;;21.26;62.47
61359;BME280;47228;46.762;23.598;2022-09-01T13:47:18;97012.21;;;21.11;63.10
61359;BME280;47228;46.762;23.598;2022-09-01T13:50:07;97028.92;;;20.99;64.54
61359;BME280;47228;46.762;23.598;2022-09-01T13:52:50;97030.13;;;20.85;65.88
61359;BME280;47228;46.762;23.598;2022-09-01T13:55:24;97034.25;;;20.66;66.69
61359;BME280;47228;46.762;23.598;2022-09-01T13:57:54;97032.48;;;20.47;67.82
61359;BME280;47228;46.762;23.598;2022-09-01T14:00:28;97031.85;;;20.26;68.15
61359;BME280;47228;46.762;23.598;2022-09-01T14:02:59;97034.97;;;20.15;69.11
61359;BME280;47228;46.762;23.598;2022-09-01T14:05:31;97035.10;;;20.01;69.51
61359;BME280;47228;46.762;23.598;2022-09-01T14:08:00;97039.57;;;19.87;70.44
61359;BME280;47228;46.762;23.598;2022-09-01T14:10:29;97045.08;;;19.78;70.64
61359;BME280;47228;46.762;23.598;2022-09-01T14:13:00;97048.70;;;19.71;70.93
61359;BME280;47228;46.762;23.598;2022-09-01T14:15:28;97058.40;;;19.67;71.54
61359;BME280;47228;46.762;23.598;2022-09-01T14:17:57;97067.28;;;19.69;71.98
61359;BME280;47228;46.762;23.598;2022-09-01T14:20:29;97066.48;;;19.69;72.33
61359;BME280;47228;46.762;23.598;2022-09-01T14:23:06;97069.38;;;19.59;72.08
61359;BME280;47228;46.762;23.598;2022-09-01T14:25:40;97066.15;;;19.48;72.44
61359;BME280;47228;46.762;23.598;2022-09-01T14:28:08;97066.09;;;19.41;73.20
61359;BME280;47228;46.762;23.598;2022-09-01T14:30:39;97070.78;;;19.37;73.99
61359;BME280;47228;46.762;23.598;2022-09-01T14:33:09;97068.52;;;19.35;74.66
61359;BME280;47228;46.762;23.598;2022-09-01T14:35:39;97073.52;;;19.31;74.42
61359;BME280;47228;46.762;23.598;2022-09-01T14:38:08;97074.05;;;19.28;74.62